Skip Navigation LinksHome page > Weather > Current weather Skip Navigation Links

Current Weather

Whiteside Co Arpt-Jos H Bittorf Fld, Sterling/Rockfalls, Ill.

For information only: do not use for flight planning or navigation.
Latest weather
Observation time Tuesday, September 28, 2021 4:56 AM CDT
Local time Tuesday, September 28, 2021 5:39 AM CDT
Flight conditions Visual Meteorological Conditions
Winds
Wind direction East-Northeast (70°)
Wind speed 8 mph
Visibility 10 mi.
Sky condition
Ceiling unlimited
Sky clear
Temperature 55°F
Dewpoint 53°F
Altimeter 29.96 in.Hg
Derived measurements
Relative humidity 93%
Density altitude 534 ft.
Sea-level pressure 29.56 in.Hg
Remarks
Automated weather observing station with precipitation discriminator.
METAR KSQI 280956Z 07007KT 10SM CLR 13/12 A2996 RMK AO2 SLP009 T01280117

Settings

Location code

InnerDrive.Weather 4.0.6770.0 Release CLR 4.0.30319.42000
Copyright ©2018 Inner Drive Technology. All rights reserved. Portions Copyright ©1986-2018 David Braverman.

Find weather

Site navigation


Skip Navigation Links

Place info

Page info

PayPal - The safer, easier way to pay online!

Return home.

Copyright ©2021 Inner Drive Technology. Purveyors of fine, hand-crafted computer software. Page printed 2021-09-28T10:39:02 UTC.